Time;durP1;ratioP1;P1;durP2;ratioP2;P2;SDS_P1;SDS_P2;PMS_P1;PMS_P2;Temp;Humidity;BMP_temperature;BMP_pressure;BME280_temperature;BME280_humidity;BME280_pressure;Samples;Min_cycle;Max_cycle;Signal;HPM_P1;HPM_P2
2022/12/25 00:01:06;;;;;;;105.85;23.30;;;4.90;99.90;;;;;;5135095;27;20050;-73
2022/12/25 00:03:32;;;;;;;124.70;23.55;;;4.90;99.90;;;;;;5118911;27;20043;-74
2022/12/25 00:05:58;;;;;;;114.07;20.58;;;4.90;99.90;;;;;;5101763;27;20099;-73
2022/12/25 00:08:24;;;;;;;121.67;21.73;;;4.90;99.90;;;;;;5137399;27;20142;-73
2022/12/25 00:11:04;;;;;;;123.80;21.10;;;4.90;99.90;;;;;;5118421;27;20495;-74
2022/12/25 00:13:30;;;;;;;108.30;21.00;;;4.90;99.90;;;;;;5118992;27;20122;-73
2022/12/25 00:15:56;;;;;;;118.95;19.95;;;4.90;99.90;;;;;;5118581;27;20433;-74
2022/12/25 00:18:22;;;;;;;109.20;18.95;;;4.90;99.90;;;;;;5137344;27;20118;-73
2022/12/25 00:20:59;;;;;;;115.40;20.13;;;4.90;99.90;;;;;;5136560;27;20035;-73
2022/12/25 00:23:25;;;;;;;108.53;20.75;;;4.80;99.90;;;;;;5117958;27;20118;-73
2022/12/25 00:25:52;;;;;;;132.03;20.97;;;4.80;99.90;;;;;;5137136;27;20047;-72
2022/12/25 00:28:18;;;;;;;123.55;19.88;;;4.90;99.90;;;;;;5136278;27;20043;-72
2022/12/25 00:30:44;;;;;;;127.57;20.67;;;4.80;99.90;;;;;;5135905;27;20031;-73
2022/12/25 00:33:10;;;;;;;126.32;22.02;;;4.80;99.90;;;;;;5100961;27;20062;-74
2022/12/25 00:35:35;;;;;;;126.13;21.77;;;4.80;99.90;;;;;;5118044;27;20043;-72
2022/12/25 00:38:01;;;;;;;98.57;19.63;;;4.80;99.90;;;;;;5136503;27;20381;-73
2022/12/25 00:40:27;;;;;;;97.20;18.95;;;4.80;99.90;;;;;;5117542;27;20080;-73
2022/12/25 00:42:53;;;;;;;106.50;18.88;;;4.80;99.90;;;;;;5118434;27;20054;-73
2022/12/25 00:45:18;;;;;;;102.68;19.17;;;4.90;99.90;;;;;;5117509;27;20347;-72
2022/12/25 00:47:44;;;;;;;104.95;19.25;;;4.90;99.90;;;;;;5118085;27;20049;-73
2022/12/25 00:50:10;;;;;;;115.80;18.45;;;4.90;99.90;;;;;;5135969;27;20368;-72
2022/12/25 00:52:36;;;;;;;109.85;19.63;;;4.90;99.90;;;;;;5135761;27;20043;-74
2022/12/25 00:55:02;;;;;;;107.30;18.90;;;4.90;99.90;;;;;;5117695;27;20049;-73
2022/12/25 00:57:28;;;;;;;113.10;18.17;;;4.90;99.90;;;;;;5117568;27;20475;-73
2022/12/25 00:59:53;;;;;;;87.35;17.50;;;5.00;99.90;;;;;;5118229;27;20103;-73
2022/12/25 01:02:22;;;;;;;99.70;18.20;;;5.00;99.90;;;;;;5135766;27;20050;-73
2022/12/25 01:04:53;;;;;;;102.60;17.85;;;5.00;99.90;;;;;;5100836;27;20043;-73
2022/12/25 01:07:20;;;;;;;102.25;18.27;;;5.00;99.90;;;;;;5136226;27;20328;-72
2022/12/25 01:12:33;;;;;;;104.85;18.65;;;5.20;99.90;;;;;;5116786;27;20047;-73
2022/12/25 01:14:59;;;;;;;95.43;18.25;;;5.20;99.90;;;;;;5135549;27;20051;-73
2022/12/25 01:17:25;;;;;;;112.22;18.13;;;5.30;99.90;;;;;;5117348;27;20047;-74
2022/12/25 01:19:51;;;;;;;105.60;18.95;;;5.40;99.90;;;;;;5135586;27;20076;-72
2022/12/25 01:22:16;;;;;;;99.80;18.98;;;5.50;99.90;;;;;;5083392;27;20046;-72
2022/12/25 01:24:43;;;;;;;117.40;19.95;;;5.60;99.90;;;;;;5100193;27;20058;-72
2022/12/25 01:27:10;;;;;;;106.88;18.73;;;5.70;99.90;;;;;;5117444;27;20057;-74
2022/12/25 01:29:36;;;;;;;112.00;18.20;;;5.80;99.90;;;;;;5135116;27;20051;-73
2022/12/25 01:32:02;;;;;;;101.70;17.30;;;5.80;99.90;;;;;;5117173;27;20437;-72
2022/12/25 01:34:28;;;;;;;99.45;19.70;;;5.80;99.90;;;;;;5116995;27;20047;-73
2022/12/25 01:36:54;;;;;;;100.80;18.08;;;5.80;99.90;;;;;;5116975;27;20431;-72
2022/12/25 01:39:20;;;;;;;101.18;17.15;;;5.90;99.90;;;;;;5135178;27;20047;-73
2022/12/25 01:41:47;;;;;;;94.72;17.13;;;5.90;99.90;;;;;;5116599;27;20498;-71
2022/12/25 01:44:18;;;;;;;103.70;19.02;;;5.90;99.90;;;;;;5082940;27;20051;-72
2022/12/25 01:46:44;;;;;;;110.63;17.65;;;5.90;99.90;;;;;;5134954;27;20130;-73
2022/12/25 01:49:21;;;;;;;99.85;17.65;;;6.00;99.90;;;;;;5116810;27;20099;-73
2022/12/25 01:51:53;;;;;;;111.68;18.85;;;6.00;99.90;;;;;;5116744;27;20043;-72
2022/12/25 01:54:33;;;;;;;99.55;18.45;;;6.00;99.90;;;;;;5117128;27;20061;-72
2022/12/25 01:57:03;;;;;;;85.13;19.08;;;6.10;99.90;;;;;;5100428;27;20053;-73
2022/12/25 01:59:29;;;;;;;92.53;17.27;;;6.20;99.90;;;;;;5134828;27;20390;-72
2022/12/25 02:01:56;;;;;;;102.72;17.92;;;6.20;99.90;;;;;;5116488;27;20043;-73
2022/12/25 02:04:38;;;;;;;92.05;16.58;;;6.20;99.90;;;;;;5116435;27;20485;-72
2022/12/25 02:07:15;;;;;;;81.28;17.02;;;6.30;99.90;;;;;;5099350;27;20047;-72
2022/12/25 02:09:41;;;;;;;97.00;17.30;;;6.30;99.90;;;;;;5115972;27;20142;-72
2022/12/25 02:12:10;;;;;;;94.82;17.40;;;6.30;99.90;;;;;;5115773;27;20487;-72
2022/12/25 02:14:36;;;;;;;77.95;16.98;;;6.30;99.90;;;;;;5116266;27;20046;-72
2022/12/25 02:17:30;;;;;;;106.40;17.00;;;6.40;99.90;;;;;;5134595;27;20510;-72
2022/12/25 02:20:26;;;;;;;99.05;17.60;;;6.40;99.90;;;;;;5134269;27;20089;-72
2022/12/25 02:23:16;;;;;;;82.68;15.27;;;6.40;99.90;;;;;;5115797;27;20054;-72
2022/12/25 02:26:20;;;;;;;93.15;16.95;;;6.40;99.90;;;;;;5134224;27;20083;-73
2022/12/25 02:29:22;;;;;;;99.55;15.93;;;6.50;99.90;;;;;;5116100;27;20059;-72
2022/12/25 02:31:59;;;;;;;77.57;16.10;;;6.60;99.90;;;;;;5134445;27;20085;-72
2022/12/25 02:34:34;;;;;;;109.10;17.63;;;6.60;99.90;;;;;;5115713;27;20066;-73
2022/12/25 02:37:10;;;;;;;103.10;17.33;;;6.70;99.90;;;;;;5099162;27;20101;-73
2022/12/25 02:40:09;;;;;;;84.63;16.52;;;6.80;99.90;;;;;;5115312;27;20047;-72
2022/12/25 03:08:10;;;;;;;89.13;16.67;;;7.10;99.90;;;;;;5115542;27;20159;-72
2022/12/25 03:13:28;;;;;;;96.47;17.52;;;7.10;99.90;;;;;;5133871;27;20055;-73
2022/12/25 03:18:38;;;;;;;78.90;15.15;;;7.10;99.90;;;;;;5133835;27;20127;-73
2022/12/25 03:26:53;;;;;;;87.60;16.17;;;7.20;99.90;;;;;;5133463;28;20133;-72
2022/12/25 03:32:17;;;;;;;78.32;15.07;;;7.20;99.90;;;;;;5115056;28;20055;-74
2022/12/25 04:37:06;;;;;;;81.95;19.00;;;7.70;99.90;;;;;;5120714;27;20047;-72
2022/12/25 04:39:31;;;;;;;95.22;18.50;;;7.70;99.90;;;;;;5117551;27;20050;-72
2022/12/25 04:41:58;;;;;;;90.05;18.77;;;7.70;99.90;;;;;;5118427;27;20054;-73
2022/12/25 04:44:23;;;;;;;99.33;18.93;;;7.80;99.90;;;;;;5135983;27;20057;-73
2022/12/25 04:46:49;;;;;;;98.07;18.85;;;7.80;99.90;;;;;;5118023;27;20399;-73
2022/12/25 04:49:15;;;;;;;99.93;20.17;;;7.80;99.90;;;;;;5117705;27;20130;-73
2022/12/25 04:51:40;;;;;;;109.13;21.20;;;7.80;99.90;;;;;;5136174;27;20043;-73
2022/12/25 04:54:06;;;;;;;90.43;18.55;;;7.90;99.90;;;;;;5136113;27;20138;-73
2022/12/25 04:56:32;;;;;;;91.93;19.70;;;7.90;99.90;;;;;;5118247;27;20095;-74
2022/12/25 04:58:58;;;;;;;89.00;18.67;;;7.90;99.90;;;;;;5135892;27;20170;-72
2022/12/25 05:01:24;;;;;;;98.25;20.70;;;7.90;99.90;;;;;;5117956;27;20054;-73
2022/12/25 05:03:49;;;;;;;86.93;19.27;;;7.90;99.90;;;;;;5117477;27;20142;-74
2022/12/25 05:06:15;;;;;;;110.25;20.67;;;7.90;99.90;;;;;;5117599;27;20157;-73
2022/12/25 05:08:41;;;;;;;110.85;21.95;;;7.90;99.90;;;;;;5117722;27;20039;-74
2022/12/25 05:11:10;;;;;;;100.70;20.58;;;7.90;99.90;;;;;;5135704;27;20426;-74
2022/12/25 05:13:36;;;;;;;101.85;20.52;;;7.90;99.90;;;;;;5135455;27;20086;-73
2022/12/25 05:16:07;;;;;;;101.03;20.33;;;8.00;99.90;;;;;;5118038;27;20039;-74
2022/12/25 05:18:33;;;;;;;92.63;19.80;;;8.00;99.90;;;;;;5099973;27;20043;-72
2022/12/25 05:20:59;;;;;;;95.35;19.65;;;8.00;99.90;;;;;;5117291;27;20122;-73
2022/12/25 05:23:25;;;;;;;105.05;20.00;;;8.00;99.90;;;;;;5117585;27;20050;-73
2022/12/25 05:25:50;;;;;;;101.40;20.73;;;8.00;99.90;;;;;;5135467;27;20057;-74
2022/12/25 05:28:17;;;;;;;92.55;19.30;;;8.00;99.90;;;;;;5116876;27;20070;-73
2022/12/25 05:30:43;;;;;;;81.70;18.67;;;8.00;99.90;;;;;;5099862;27;20049;-74
2022/12/25 05:33:09;;;;;;;100.40;20.65;;;8.00;99.90;;;;;;5116771;27;20219;-73
2022/12/25 05:35:38;;;;;;;81.47;19.27;;;8.00;99.90;;;;;;5135118;27;20081;-73
2022/12/25 05:38:05;;;;;;;93.95;20.70;;;8.10;99.90;;;;;;5116805;27;20043;-73
2022/12/25 05:40:32;;;;;;;94.43;19.88;;;8.10;99.90;;;;;;5117097;27;20050;-73
2022/12/25 05:42:58;;;;;;;91.15;18.77;;;8.10;99.90;;;;;;5116551;27;20146;-74
2022/12/25 05:45:24;;;;;;;94.43;19.40;;;8.10;99.90;;;;;;5099723;27;20122;-73
2022/12/25 05:47:49;;;;;;;100.57;20.67;;;8.10;99.90;;;;;;5116590;27;20089;-73
2022/12/25 05:50:15;;;;;;;83.95;19.42;;;8.10;99.90;;;;;;5134880;27;20078;-73
2022/12/25 05:52:41;;;;;;;103.85;19.67;;;8.10;99.90;;;;;;5100216;27;20383;-72
2022/12/25 05:55:07;;;;;;;94.90;19.98;;;8.10;99.90;;;;;;5134853;27;20418;-73
2022/12/25 05:57:33;;;;;;;97.93;20.42;;;8.20;99.90;;;;;;5082190;27;20090;-73
2022/12/25 05:59:58;;;;;;;97.18;18.77;;;8.20;99.90;;;;;;5115810;27;20082;-73
2022/12/25 06:02:24;;;;;;;87.75;19.08;;;8.20;99.90;;;;;;5134592;27;20039;-73
2022/12/25 06:04:50;;;;;;;83.35;19.80;;;8.20;99.90;;;;;;5099439;27;20104;-73
2022/12/25 06:07:16;;;;;;;90.28;18.88;;;8.20;99.90;;;;;;5116326;27;20186;-73
2022/12/25 06:09:42;;;;;;;101.60;19.65;;;8.20;99.90;;;;;;5099277;27;20058;-73
2022/12/25 06:12:08;;;;;;;89.35;19.20;;;8.20;99.90;;;;;;5116214;27;20089;-73
2022/12/25 06:14:34;;;;;;;84.40;19.58;;;8.30;99.90;;;;;;5116277;27;20458;-73
2022/12/25 06:17:00;;;;;;;87.70;20.05;;;8.20;99.90;;;;;;5116149;27;20471;-72
2022/12/25 06:19:26;;;;;;;93.80;20.33;;;8.30;99.90;;;;;;5115862;27;20152;-73
2022/12/25 06:21:53;;;;;;;83.97;19.05;;;8.30;99.90;;;;;;5134171;27;20058;-73
2022/12/25 06:24:23;;;;;;;74.53;18.83;;;8.30;99.90;;;;;;5115969;27;20138;-74
2022/12/25 06:26:49;;;;;;;77.53;17.63;;;8.30;99.90;;;;;;5116233;27;20042;-73
2022/12/25 06:29:15;;;;;;;76.90;18.33;;;8.30;99.90;;;;;;5115513;27;20374;-74
2022/12/25 06:31:41;;;;;;;75.28;17.27;;;8.30;99.90;;;;;;5098677;27;20053;-74
2022/12/25 06:34:07;;;;;;;69.32;16.65;;;8.30;99.90;;;;;;5098820;27;20047;-73
2022/12/25 06:36:33;;;;;;;78.50;17.55;;;8.30;99.90;;;;;;5116109;27;20054;-73
2022/12/25 06:39:00;;;;;;;70.38;17.27;;;8.30;99.90;;;;;;5098689;27;20066;-74
2022/12/25 06:41:27;;;;;;;67.40;17.50;;;8.20;99.90;;;;;;5115498;27;20051;-73
2022/12/25 06:43:55;;;;;;;80.60;16.98;;;8.20;99.90;;;;;;5133999;27;20039;-73
2022/12/25 06:46:22;;;;;;;72.35;16.25;;;8.10;99.90;;;;;;5133717;27;20148;-73
2022/12/25 06:48:48;;;;;;;65.97;16.00;;;8.10;99.90;;;;;;5115075;27;20051;-73
2022/12/25 06:51:20;;;;;;;64.20;16.10;;;8.00;99.90;;;;;;5115885;27;20043;-73
2022/12/25 06:53:47;;;;;;;57.95;14.93;;;8.00;99.90;;;;;;5115531;27;20074;-73
2022/12/25 06:56:15;;;;;;;71.63;15.95;;;8.00;99.90;;;;;;5115962;27;20047;-72
2022/12/25 06:58:46;;;;;;;71.22;16.13;;;7.90;99.90;;;;;;5133399;27;20542;-73
2022/12/25 07:01:20;;;;;;;79.03;15.80;;;7.90;99.90;;;;;;5133809;27;20075;-72
2022/12/25 07:03:48;;;;;;;73.38;16.33;;;7.80;99.90;;;;;;5133885;27;20147;-72
2022/12/25 07:06:14;;;;;;;63.10;14.60;;;7.80;99.90;;;;;;5115801;27;20047;-73
2022/12/25 07:08:40;;;;;;;69.40;16.02;;;7.80;99.90;;;;;;5115471;27;20043;-73
2022/12/25 07:11:06;;;;;;;67.53;15.63;;;7.80;99.90;;;;;;5132957;27;20039;-73
2022/12/25 07:13:32;;;;;;;67.43;16.02;;;7.80;99.90;;;;;;5098371;27;20039;-74
2022/12/25 07:15:59;;;;;;;66.25;14.80;;;7.80;99.90;;;;;;5116205;28;20050;-73
2022/12/25 07:18:26;;;;;;;59.55;16.00;;;7.80;99.90;;;;;;5133426;27;20089;-74
2022/12/25 07:20:54;;;;;;;65.63;14.77;;;7.80;99.90;;;;;;5133480;27;20433;-73
2022/12/25 07:23:20;;;;;;;67.63;16.80;;;7.80;99.90;;;;;;5134233;27;20047;-73
2022/12/25 07:25:56;;;;;;;59.88;14.85;;;7.80;99.90;;;;;;5133550;28;20035;-72
2022/12/25 07:28:22;;;;;;;65.07;15.80;;;7.80;99.90;;;;;;5133723;28;20093;-73
2022/12/25 07:30:48;;;;;;;68.95;16.58;;;7.80;99.90;;;;;;5133561;28;20436;-73
2022/12/25 07:33:14;;;;;;;68.03;15.05;;;7.80;99.90;;;;;;5115141;28;20081;-74
2022/12/25 07:35:39;;;;;;;63.97;14.93;;;7.80;99.90;;;;;;5134042;28;20116;-73
2022/12/25 07:38:05;;;;;;;52.45;13.50;;;7.80;99.90;;;;;;5115546;28;20039;-73
2022/12/25 07:40:31;;;;;;;61.53;14.93;;;7.80;99.90;;;;;;5133431;27;20055;-75
2022/12/25 07:42:57;;;;;;;61.25;14.75;;;7.80;99.90;;;;;;5082158;28;20122;-73
2022/12/25 07:45:22;;;;;;;66.55;14.80;;;7.80;99.90;;;;;;5133395;28;20038;-73
2022/12/25 07:47:48;;;;;;;64.10;16.60;;;7.80;99.90;;;;;;5115692;28;20507;-73
2022/12/25 07:50:14;;;;;;;65.45;17.08;;;7.80;99.90;;;;;;5098888;28;20043;-74
2022/12/25 07:52:39;;;;;;;54.50;14.43;;;7.80;99.90;;;;;;5115224;28;20455;-73
2022/12/25 07:55:05;;;;;;;64.38;14.45;;;7.80;99.90;;;;;;5097983;28;20479;-73
2022/12/25 07:57:32;;;;;;;50.55;13.55;;;7.70;99.90;;;;;;5114987;28;20191;-74
2022/12/25 07:59:57;;;;;;;66.07;14.40;;;7.70;99.90;;;;;;5097716;28;20070;-73
2022/12/25 08:02:27;;;;;;;62.35;14.65;;;7.70;99.90;;;;;;5098111;28;20043;-74
2022/12/25 08:04:55;;;;;;;60.85;15.02;;;7.70;99.90;;;;;;5133378;28;20043;-74
2022/12/25 08:07:22;;;;;;;56.22;13.80;;;7.80;99.90;;;;;;5133114;28;20055;-73
2022/12/25 08:09:48;;;;;;;56.30;13.23;;;7.80;99.90;;;;;;5114671;28;20051;-74
2022/12/25 08:12:14;;;;;;;48.30;14.00;;;7.80;99.90;;;;;;5132780;28;20058;-73
2022/12/25 08:14:39;;;;;;;53.83;14.45;;;7.80;99.90;;;;;;5114677;28;20082;-73
2022/12/25 08:17:05;;;;;;;56.90;13.98;;;7.80;99.90;;;;;;5114959;28;20043;-73
2022/12/25 08:19:31;;;;;;;65.20;16.05;;;7.80;99.90;;;;;;5133420;28;20047;-73
2022/12/25 08:21:57;;;;;;;52.90;15.60;;;7.80;99.90;;;;;;5116761;27;20527;-73
2022/12/25 08:24:23;;;;;;;58.78;14.93;;;7.80;99.90;;;;;;5137257;27;20054;-72
2022/12/25 08:26:48;;;;;;;59.38;14.95;;;7.80;99.90;;;;;;5118359;27;20046;-72
2022/12/25 08:29:15;;;;;;;61.50;15.50;;;7.90;99.90;;;;;;5118166;27;20111;-73
2022/12/25 08:31:42;;;;;;;55.55;14.38;;;7.90;99.90;;;;;;5118059;27;20425;-74
2022/12/25 08:34:09;;;;;;;53.47;13.10;;;7.90;99.90;;;;;;5118269;27;20192;-73
2022/12/25 08:36:35;;;;;;;45.83;14.15;;;8.00;99.90;;;;;;5118280;27;20122;-75
2022/12/25 08:39:01;;;;;;;43.63;13.55;;;8.00;99.90;;;;;;5101815;27;20058;-75
2022/12/25 08:41:27;;;;;;;46.65;13.15;;;8.00;99.90;;;;;;5136407;27;20230;-75
2022/12/25 08:43:53;;;;;;;62.53;14.25;;;8.00;99.90;;;;;;5118059;27;20383;-73
2022/12/25 08:46:19;;;;;;;53.42;13.60;;;8.10;99.90;;;;;;5118696;27;20074;-75
2022/12/25 08:48:46;;;;;;;47.83;13.75;;;8.10;99.90;;;;;;5101114;27;20463;-74
2022/12/25 08:51:14;;;;;;;;;;;8.00;99.90;;;;;;5118428;27;20084;-73
2022/12/25 08:53:45;;;;;;;56.05;13.75;;;8.00;99.90;;;;;;5117726;27;19923;-74
2022/12/25 08:56:11;;;;;;;54.78;13.77;;;8.10;99.90;;;;;;5136126;27;20139;-74
2022/12/25 08:58:37;;;;;;;45.75;13.75;;;8.10;99.90;;;;;;5118068;27;20035;-74
2022/12/25 09:01:04;;;;;;;52.67;13.80;;;8.10;99.90;;;;;;5117268;27;20126;-73
2022/12/25 09:03:33;;;;;;;54.15;12.93;;;8.20;99.90;;;;;;5135927;27;20051;-73
2022/12/25 09:06:07;;;;;;;46.75;13.57;;;8.10;99.90;;;;;;5135811;27;20047;-73
2022/12/25 09:08:34;;;;;;;45.45;13.55;;;8.20;99.90;;;;;;5117562;27;20065;-73
2022/12/25 09:11:05;;;;;;;52.55;13.35;;;8.20;99.90;;;;;;5117240;27;20376;-73
2022/12/25 09:13:31;;;;;;;45.72;13.43;;;8.20;99.90;;;;;;5117705;27;20103;-73
2022/12/25 09:15:57;;;;;;;50.97;13.30;;;8.20;99.90;;;;;;5117139;27;20039;-74
2022/12/25 09:18:23;;;;;;;46.53;13.23;;;8.20;99.90;;;;;;5117023;27;20351;-73
2022/12/25 09:21:04;;;;;;;48.72;13.88;;;8.20;99.90;;;;;;5135740;27;20039;-73
2022/12/25 09:23:30;;;;;;;54.95;13.43;;;8.30;99.90;;;;;;5100837;27;20051;-74
2022/12/25 09:26:01;;;;;;;56.25;13.70;;;8.30;99.90;;;;;;5100207;27;20045;-74
2022/12/25 09:28:27;;;;;;;49.33;14.95;;;8.30;99.90;;;;;;5135366;27;20047;-73
2022/12/25 09:30:53;;;;;;;53.60;12.82;;;8.30;99.90;;;;;;5117026;27;20039;-73
2022/12/25 09:33:20;;;;;;;56.33;13.43;;;8.30;99.90;;;;;;5116094;27;20086;-75
2022/12/25 09:35:56;;;;;;;44.45;14.27;;;8.30;99.90;;;;;;5116832;27;20439;-75
2022/12/25 09:38:23;;;;;;;52.53;13.45;;;8.40;99.90;;;;;;5100328;27;20058;-73
2022/12/25 09:41:01;;;;;;;46.00;14.80;;;8.40;99.90;;;;;;5116989;27;20055;-74
2022/12/25 09:43:29;;;;;;;48.13;14.25;;;8.40;99.90;;;;;;5134828;27;20126;-74
2022/12/25 09:45:58;;;;;;;45.97;13.75;;;8.40;99.90;;;;;;5116508;27;20134;-75
2022/12/25 09:48:24;;;;;;;52.13;12.55;;;8.50;99.90;;;;;;5134531;27;20050;-73
2022/12/25 09:50:57;;;;;;;42.35;12.75;;;8.50;99.90;;;;;;5116072;27;20043;-75
2022/12/25 09:53:27;;;;;;;47.72;13.38;;;8.50;99.90;;;;;;5134873;27;20130;-74
2022/12/25 09:56:15;;;;;;;47.30;13.43;;;8.50;99.90;;;;;;5134460;27;20595;-74
2022/12/25 09:58:41;;;;;;;40.17;12.68;;;8.60;99.90;;;;;;5099312;27;20039;-73
2022/12/25 10:01:09;;;;;;;44.92;13.48;;;8.60;99.90;;;;;;5116811;27;20130;-73
2022/12/25 10:04:04;;;;;;;41.60;12.48;;;8.60;99.90;;;;;;5134220;27;20496;-75
2022/12/25 10:07:04;;;;;;;38.00;12.65;;;8.60;99.90;;;;;;5115843;27;20439;-74
2022/12/25 10:09:48;;;;;;;41.80;12.90;;;8.60;99.90;;;;;;5116248;27;20051;-74
2022/12/25 10:12:46;;;;;;;38.83;12.60;;;8.70;99.90;;;;;;5099136;27;20118;-74
2022/12/25 10:15:17;;;;;;;44.75;13.10;;;8.70;99.90;;;;;;5116248;27;20042;-73
2022/12/25 10:18:28;;;;;;;41.42;13.73;;;8.70;99.90;;;;;;5115725;27;20043;-75
2022/12/25 10:20:56;;;;;;;51.20;13.20;;;8.70;99.90;;;;;;5099762;27;20100;-76
2022/12/25 10:23:31;;;;;;;45.38;13.00;;;8.70;99.90;;;;;;5116556;27;20049;-75
2022/12/25 10:25:57;;;;;;;44.25;12.93;;;8.70;99.90;;;;;;5134422;27;20074;-75
2022/12/25 10:28:33;;;;;;;47.67;13.65;;;8.70;99.90;;;;;;5115538;27;20096;-74
2022/12/25 10:31:16;;;;;;;52.38;15.00;;;8.80;99.90;;;;;;5099420;27;20062;-75
2022/12/25 10:33:42;;;;;;;44.85;14.45;;;8.80;99.90;;;;;;5115979;27;20047;-74
2022/12/25 10:36:08;;;;;;;42.53;13.52;;;8.70;99.90;;;;;;5115516;27;20053;-75
2022/12/25 10:38:35;;;;;;;39.30;13.68;;;8.70;99.90;;;;;;5133877;27;20506;-74
2022/12/25 10:41:18;;;;;;;51.67;16.52;;;8.80;99.90;;;;;;5133937;27;20395;-74
2022/12/25 10:43:56;;;;;;;44.47;13.85;;;8.80;99.90;;;;;;5116185;27;20441;-74
2022/12/25 10:46:25;;;;;;;49.58;14.18;;;8.80;99.90;;;;;;5099359;27;20126;-74
2022/12/25 10:49:02;;;;;;;43.60;12.10;;;8.90;99.90;;;;;;5116074;27;20045;-75
2022/12/25 10:51:33;;;;;;;45.00;12.60;;;8.90;99.90;;;;;;5134110;27;20039;-75
2022/12/25 10:54:01;;;;;;;46.17;12.68;;;8.90;99.90;;;;;;5098901;28;20058;-74
2022/12/25 10:56:27;;;;;;;41.88;12.75;;;9.00;99.90;;;;;;5115459;27;20090;-74
2022/12/25 10:59:08;;;;;;;43.45;12.18;;;8.90;99.90;;;;;;5115542;27;20043;-74
2022/12/25 11:01:34;;;;;;;46.38;12.90;;;8.90;99.90;;;;;;5115446;27;20061;-74
2022/12/25 11:04:00;;;;;;;55.30;15.77;;;8.90;99.90;;;;;;5133758;27;20062;-73
2022/12/25 11:06:28;;;;;;;53.45;15.52;;;9.00;99.90;;;;;;5081738;27;20133;-75
2022/12/25 11:08:57;;;;;;;55.58;16.83;;;9.00;99.90;;;;;;5115629;27;20150;-74
2022/12/25 11:11:24;;;;;;;47.05;13.73;;;9.00;99.90;;;;;;5115065;27;20047;-74
2022/12/25 11:13:57;;;;;;;39.35;13.63;;;8.90;99.90;;;;;;5114832;27;20451;-75
2022/12/25 11:16:31;;;;;;;46.65;12.10;;;8.90;99.90;;;;;;5115831;28;20035;-74
2022/12/25 11:18:57;;;;;;;42.20;11.77;;;8.90;99.90;;;;;;5133912;27;20047;-73
2022/12/25 11:21:26;;;;;;;44.88;13.35;;;8.90;99.90;;;;;;5133457;27;20050;-74
2022/12/25 11:24:17;;;;;;;47.20;15.48;;;8.90;99.90;;;;;;5133436;27;20058;-74
2022/12/25 11:26:49;;;;;;;55.72;17.85;;;9.00;99.90;;;;;;5105784;28;20070;-74
2022/12/25 11:29:23;;;;;;;47.50;14.75;;;9.00;99.90;;;;;;5133381;28;20059;-74
2022/12/25 11:31:51;;;;;;;44.90;13.07;;;9.10;99.90;;;;;;5114824;28;20133;-74
2022/12/25 11:34:20;;;;;;;42.63;12.90;;;9.10;99.90;;;;;;5098935;28;20097;-75
2022/12/25 11:36:50;;;;;;;45.15;13.30;;;9.20;99.90;;;;;;5132933;28;20043;-74
2022/12/25 11:39:29;;;;;;;45.63;13.57;;;9.20;99.90;;;;;;5133528;28;20054;-73
2022/12/25 11:42:17;;;;;;;42.80;12.55;;;9.20;99.90;;;;;;5114625;28;20060;-75
2022/12/25 11:44:48;;;;;;;46.55;14.45;;;9.20;99.90;;;;;;5133346;28;20264;-74
2022/12/25 11:47:46;;;;;;;45.17;13.90;;;9.20;99.90;;;;;;5114850;28;20119;-75
2022/12/25 11:50:26;;;;;;;45.85;12.85;;;9.20;99.90;;;;;;5133540;28;20105;-75
2022/12/25 11:52:52;;;;;;;50.08;13.75;;;9.20;99.90;;;;;;5115127;28;20047;-74
2022/12/25 11:55:19;;;;;;;45.92;13.32;;;9.20;99.90;;;;;;5097917;27;20123;-73
2022/12/25 11:57:52;;;;;;;41.30;12.50;;;9.20;99.90;;;;;;5136416;27;20447;-75
2022/12/25 12:00:18;;;;;;;39.10;12.52;;;9.20;99.90;;;;;;5119030;27;20383;-73
2022/12/25 12:03:02;;;;;;;44.03;12.07;;;9.20;99.90;;;;;;5102080;27;20051;-74
2022/12/25 12:05:34;;;;;;;47.72;14.15;;;9.20;99.90;;;;;;5119487;27;20411;-74
2022/12/25 12:08:03;;;;;;;47.58;14.38;;;9.20;99.90;;;;;;5118589;27;20512;-74
2022/12/25 12:10:35;;;;;;;42.53;12.70;;;9.30;99.90;;;;;;5137294;27;20089;-74
2022/12/25 12:13:13;;;;;;;39.40;12.80;;;9.20;99.90;;;;;;5136769;27;20042;-73
2022/12/25 12:15:48;;;;;;;49.63;13.05;;;9.30;99.90;;;;;;5137242;27;20534;-74
2022/12/25 12:18:31;;;;;;;47.83;14.23;;;9.30;99.90;;;;;;5118313;27;20051;-75
2022/12/25 12:21:17;;;;;;;44.40;14.05;;;9.20;99.90;;;;;;5102283;27;20054;-75
2022/12/25 12:24:04;;;;;;;43.17;13.80;;;9.30;99.90;;;;;;5118381;27;20039;-75
2022/12/25 12:26:36;;;;;;;43.25;15.48;;;9.30;99.90;;;;;;5137055;27;20054;-74
2022/12/25 12:29:04;;;;;;;44.92;15.27;;;9.30;99.90;;;;;;5100986;27;20047;-73
2022/12/25 12:31:42;;;;;;;45.60;15.82;;;9.40;99.90;;;;;;5136523;27;20099;-75
2022/12/25 12:34:25;;;;;;;52.40;16.25;;;9.40;99.90;;;;;;5136874;27;20050;-75
2022/12/25 12:36:58;;;;;;;38.17;14.55;;;9.40;99.90;;;;;;5101646;27;20039;-74
2022/12/25 12:39:27;;;;;;;46.35;15.73;;;9.50;99.90;;;;;;5136821;27;20039;-73
2022/12/25 12:41:53;;;;;;;45.00;14.45;;;9.50;99.90;;;;;;5114613;28;20055;-73
2022/12/25 12:44:30;;;;;;;51.20;14.82;;;9.50;99.90;;;;;;5114993;28;20047;-74
2022/12/25 12:46:56;;;;;;;43.80;12.65;;;9.50;99.90;;;;;;5115360;28;20044;-74
2022/12/25 12:49:31;;;;;;;52.92;15.43;;;9.40;99.90;;;;;;5115185;28;20055;-74
2022/12/25 12:52:09;;;;;;;52.10;16.92;;;9.40;99.90;;;;;;5114835;28;20051;-73
2022/12/25 12:54:58;;;;;;;47.47;14.30;;;9.40;99.90;;;;;;5115670;27;20050;-73
2022/12/25 12:57:28;;;;;;;61.47;18.23;;;9.40;99.90;;;;;;5115478;28;20068;-73
2022/12/25 12:59:56;;;;;;;56.35;17.98;;;9.40;99.90;;;;;;5114464;28;20043;-75
2022/12/25 13:02:53;;;;;;;65.90;18.88;;;9.30;99.90;;;;;;5114172;28;20189;-74
2022/12/25 13:05:40;;;;;;;68.03;19.15;;;9.40;99.90;;;;;;5114646;28;20055;-74
2022/12/25 13:08:17;;;;;;;;;;;9.40;99.90;;;;;;5114513;28;20047;-74
2022/12/25 13:10:49;;;;;;;69.10;19.63;;;9.40;99.90;;;;;;5115331;28;19980;-73
2022/12/25 13:13:23;;;;;;;50.80;15.70;;;9.30;99.90;;;;;;5097668;28;20050;-74
2022/12/25 13:15:50;;;;;;;53.33;17.08;;;9.30;99.90;;;;;;5115301;28;20082;-74
2022/12/25 13:18:16;;;;;;;81.00;21.65;;;9.30;99.90;;;;;;5114126;28;20051;-74
2022/12/25 13:20:53;;;;;;;56.58;19.88;;;9.30;99.90;;;;;;5114439;28;20047;-75
2022/12/25 13:23:26;;;;;;;;;;;9.30;99.90;;;;;;5114400;28;20056;-73
2022/12/25 13:25:58;;;;;;;63.75;16.23;;;9.30;99.90;;;;;;5113987;28;20010;-75
2022/12/25 13:28:30;;;;;;;55.30;16.83;;;9.30;99.90;;;;;;5096732;28;20448;-74
2022/12/25 13:31:02;;;;;;;49.95;17.48;;;9.20;99.90;;;;;;5114885;28;20458;-75
2022/12/25 13:33:27;;;;;;;57.72;17.35;;;9.20;99.90;;;;;;5114759;28;20048;-75
2022/12/25 13:35:53;;;;;;;48.10;17.10;;;9.20;99.90;;;;;;5114839;28;20126;-76
2022/12/25 13:38:21;;;;;;;55.17;17.45;;;9.20;99.90;;;;;;5114654;28;20486;-73
2022/12/25 13:43:39;;;;;;;61.63;20.58;;;9.20;99.90;;;;;;5134711;27;20126;-73
2022/12/25 13:46:05;;;;;;;;;;;9.20;99.90;;;;;;5135456;27;20131;-72
2022/12/25 13:48:31;;;;;;;42.57;15.90;;;9.20;99.90;;;;;;5135065;27;19958;-74
2022/12/25 13:50:59;;;;;;;59.08;19.55;;;9.20;99.90;;;;;;5099539;27;20035;-74
2022/12/25 13:53:25;;;;;;;54.90;18.38;;;9.20;99.90;;;;;;5134865;27;20046;-71
2022/12/25 13:55:53;;;;;;;52.78;18.20;;;9.20;99.90;;;;;;5116663;27;20072;-73
2022/12/25 13:58:26;;;;;;;47.60;16.48;;;9.20;99.90;;;;;;5134851;27;20051;-72
2022/12/25 14:00:55;;;;;;;56.40;18.50;;;9.20;99.90;;;;;;5100236;27;20054;-73
2022/12/25 14:03:29;;;;;;;55.72;18.33;;;9.10;99.90;;;;;;5134490;27;20084;-72
2022/12/25 14:06:01;;;;;;;47.90;18.20;;;9.10;99.90;;;;;;5134699;27;20046;-72
2022/12/25 14:08:31;;;;;;;46.10;15.38;;;9.10;99.90;;;;;;5116333;27;20126;-72
2022/12/25 14:10:59;;;;;;;45.70;15.68;;;9.10;99.90;;;;;;5134378;27;20050;-74
2022/12/25 14:13:27;;;;;;;50.42;18.00;;;9.20;99.90;;;;;;5134468;27;20079;-72
2022/12/25 14:15:54;;;;;;;65.13;22.60;;;9.10;99.90;;;;;;5134789;27;20130;-72
2022/12/25 14:18:22;;;;;;;71.63;25.70;;;9.10;99.90;;;;;;5134329;27;20379;-72
2022/12/25 14:21:08;;;;;;;58.40;23.48;;;9.10;99.90;;;;;;5133751;27;20064;-70
2022/12/25 14:23:43;;;;;;;55.42;18.17;;;9.10;99.90;;;;;;5134754;27;20079;-72
2022/12/25 14:26:21;;;;;;;62.75;20.05;;;9.10;99.90;;;;;;5133884;27;20509;-72
2022/12/25 14:28:49;;;;;;;54.90;18.80;;;9.00;99.90;;;;;;5133712;27;20135;-71
2022/12/25 14:31:15;;;;;;;62.10;18.65;;;9.10;99.90;;;;;;5133978;27;20062;-72
2022/12/25 14:33:41;;;;;;;52.30;18.53;;;9.10;99.90;;;;;;5133876;27;20054;-71
2022/12/25 14:36:11;;;;;;;67.63;22.35;;;9.10;99.90;;;;;;5134039;27;20417;-71
2022/12/25 14:38:39;;;;;;;58.13;20.48;;;9.00;99.90;;;;;;5133940;27;20047;-71